createdAt,value
2018-09-26T00:00:57.572Z,64.67
2018-09-26T00:03:31.090Z,64.18
2018-09-26T00:06:00.267Z,64.52
2018-09-26T00:08:29.445Z,64.30
2018-09-26T00:10:58.644Z,64.59
2018-09-26T00:13:27.814Z,64.99
2018-09-26T00:15:56.983Z,64.84
2018-09-26T00:18:26.180Z,65.20
2018-09-26T00:20:55.336Z,65.47
2018-09-26T00:23:24.524Z,65.41
2018-09-26T00:25:53.671Z,65.79
2018-09-26T00:28:22.891Z,65.99
2018-09-26T00:30:52.341Z,66.13
2018-09-26T00:33:21.537Z,66.58
2018-09-26T00:35:50.773Z,66.99
2018-09-26T00:38:20.043Z,66.21
2018-09-26T00:40:49.222Z,66.31
2018-09-26T00:43:18.402Z,66.37
2018-09-26T00:45:47.597Z,66.72
2018-09-26T00:48:16.792Z,66.72
2018-09-26T00:50:45.987Z,66.93
2018-09-26T00:53:15.507Z,66.86
2018-09-26T00:55:44.684Z,66.59
2018-09-26T00:58:13.871Z,67.06
2018-09-26T01:00:43.101Z,66.90
2018-09-26T01:03:12.303Z,66.69
2018-09-26T01:05:41.477Z,66.84
2018-09-26T01:08:10.648Z,66.59
2018-09-26T01:10:39.834Z,66.16
2018-09-26T01:13:09.044Z,66.05
2018-09-26T01:15:38.282Z,65.86
2018-09-26T01:18:07.884Z,65.72
2018-09-26T01:20:37.121Z,65.84
2018-09-26T01:23:06.351Z,65.67
2018-09-26T01:25:35.560Z,65.60
2018-09-26T01:28:04.729Z,65.90
2018-09-26T01:30:33.933Z,65.98
2018-09-26T01:33:03.140Z,65.86
2018-09-26T01:35:32.308Z,65.52
2018-09-26T01:38:01.467Z,65.66
2018-09-26T01:40:30.665Z,66.19
2018-09-26T01:42:59.883Z,66.03
2018-09-26T01:45:29.114Z,66.07
2018-09-26T01:47:58.248Z,66.64
2018-09-26T01:50:27.432Z,66.45
2018-09-26T01:52:56.589Z,66.44
2018-09-26T01:55:25.798Z,65.92
2018-09-26T01:57:55.001Z,66.10
2018-09-26T02:00:24.140Z,66.46
2018-09-26T02:02:53.303Z,65.95
2018-09-26T02:05:22.521Z,65.77
2018-09-26T02:07:51.702Z,65.58
2018-09-26T02:10:20.891Z,65.88
2018-09-26T02:12:50.093Z,66.15
2018-09-26T02:15:19.305Z,65.59
2018-09-26T02:17:48.497Z,65.92
2018-09-26T02:20:17.657Z,65.60
2018-09-26T02:22:46.805Z,65.46
2018-09-26T02:25:16.019Z,65.32
2018-09-26T02:27:45.280Z,65.43
2018-09-26T02:30:14.539Z,64.89
2018-09-26T02:32:43.757Z,65.07
2018-09-26T02:35:12.981Z,65.26
2018-09-26T02:37:42.262Z,65.38
2018-09-26T02:40:11.466Z,65.50
2018-09-26T02:42:40.696Z,65.30
2018-09-26T02:45:09.976Z,65.43
2018-09-26T02:47:39.157Z,65.22
2018-09-26T02:50:08.540Z,64.81
2018-09-26T02:52:37.734Z,64.86
2018-09-26T02:55:06.989Z,64.74
2018-09-26T02:57:36.236Z,64.56
2018-09-26T03:00:05.544Z,63.96
2018-09-26T03:02:34.723Z,64.03
2018-09-26T03:05:03.899Z,64.09
2018-09-26T03:07:33.081Z,64.51
2018-09-26T03:10:02.286Z,64.55
2018-09-26T03:12:31.572Z,64.66
2018-09-26T03:15:00.753Z,64.39
2018-09-26T03:17:29.934Z,64.47
2018-09-26T03:19:59.233Z,64.06
2018-09-26T03:22:28.516Z,63.90
2018-09-26T03:24:57.732Z,64.23
2018-09-26T03:27:26.937Z,64.22
2018-09-26T03:29:56.167Z,64.39
2018-09-26T03:32:25.533Z,64.62
2018-09-26T03:34:54.726Z,64.06
2018-09-26T03:37:23.946Z,64.18
2018-09-26T03:39:53.129Z,64.17
2018-09-26T03:42:22.294Z,63.73
2018-09-26T03:44:51.427Z,63.83
2018-09-26T03:47:20.607Z,63.92
2018-09-26T03:49:49.758Z,63.60
2018-09-26T03:52:18.929Z,63.58
2018-09-26T03:54:48.113Z,63.26
2018-09-26T03:57:17.338Z,63.23
2018-09-26T03:59:46.446Z,63.58
2018-09-26T04:02:15.534Z,63.73
2018-09-26T04:04:44.800Z,63.87
2018-09-26T04:07:13.866Z,63.77
2018-09-26T04:09:43.178Z,63.80
2018-09-26T04:12:12.377Z,63.49
2018-09-26T04:14:41.561Z,63.74
2018-09-26T04:17:10.713Z,63.96
2018-09-26T04:19:39.916Z,63.91
2018-09-26T04:22:09.095Z,63.46
2018-09-26T04:24:38.232Z,63.73
2018-09-26T04:27:07.527Z,63.61
2018-09-26T04:29:36.645Z,63.83
2018-09-26T04:32:05.899Z,63.77
2018-09-26T04:34:35.095Z,64.22
2018-09-26T04:37:04.264Z,63.92
2018-09-26T04:39:33.484Z,64.03
2018-09-26T04:42:02.704Z,63.82
2018-09-26T04:44:31.892Z,64.10
2018-09-26T04:47:01.227Z,64.09
2018-09-26T04:49:30.406Z,64.01
2018-09-26T04:51:59.606Z,64.04
2018-09-26T04:54:28.759Z,64.18
2018-09-26T04:56:57.949Z,64.02
2018-09-26T04:59:27.194Z,63.74
2018-09-26T05:01:56.427Z,64.08
2018-09-26T05:04:25.817Z,63.82
2018-09-26T05:06:55.049Z,64.28
2018-09-26T05:09:24.229Z,64.33
2018-09-26T05:11:53.409Z,64.54
2018-09-26T05:14:22.646Z,64.64
2018-09-26T05:16:51.784Z,64.28
2018-09-26T05:19:20.940Z,64.74
2018-09-26T05:21:50.108Z,64.51
2018-09-26T05:24:19.301Z,64.18
2018-09-26T05:26:48.620Z,64.33
2018-09-26T05:29:17.837Z,64.23
2018-09-26T05:31:47.070Z,63.99
2018-09-26T05:34:16.287Z,63.86
2018-09-26T05:36:45.487Z,63.77
2018-09-26T05:39:14.603Z,63.68
2018-09-26T05:41:43.773Z,63.01
2018-09-26T05:44:13.010Z,62.66
2018-09-26T05:46:42.305Z,61.98
2018-09-26T05:49:11.460Z,61.09
2018-09-26T05:51:40.656Z,60.76
2018-09-26T05:54:09.849Z,60.74
2018-09-26T05:56:39.196Z,60.92
2018-09-26T05:59:08.726Z,60.76
2018-09-26T06:01:37.912Z,60.03
2018-09-26T06:04:07.180Z,60.19
2018-09-26T06:06:36.364Z,59.93
2018-09-26T06:09:09.829Z,59.78
2018-09-26T06:11:39.061Z,59.65
2018-09-26T06:14:09.710Z,59.16
2018-09-26T06:16:38.925Z,59.11
2018-09-26T06:19:08.743Z,58.81
2018-09-26T06:21:37.954Z,58.95
2018-09-26T06:24:07.777Z,59.00
2018-09-26T06:26:37.056Z,59.07
2018-09-26T06:29:06.380Z,58.26
2018-09-26T06:31:35.590Z,57.99
2018-09-26T06:34:04.767Z,57.72
2018-09-26T06:36:34.040Z,57.40
2018-09-26T06:39:03.492Z,56.79
2018-09-26T06:41:32.740Z,56.40
2018-09-26T06:44:01.887Z,56.05
2018-09-26T06:46:31.062Z,56.48
2018-09-26T06:49:00.631Z,56.01
2018-09-26T06:51:29.812Z,56.02
2018-09-26T06:53:59.230Z,57.46
2018-09-26T06:56:35.403Z,55.24
2018-09-26T06:59:04.683Z,55.28
2018-09-26T07:01:33.866Z,55.18
2018-09-26T07:04:03.110Z,54.55
2018-09-26T07:06:32.334Z,53.40
2018-09-26T07:09:01.525Z,53.31
2018-09-26T07:11:30.749Z,52.82
2018-09-26T07:13:59.954Z,51.87
2018-09-26T07:16:29.117Z,51.78
2018-09-26T07:18:58.273Z,51.45
2018-09-26T07:21:27.480Z,51.18
2018-09-26T07:23:57.043Z,49.93
2018-09-26T07:26:26.177Z,48.74
2018-09-26T07:28:55.397Z,47.83
2018-09-26T07:31:24.666Z,47.31
2018-09-26T07:33:53.893Z,46.26
2018-09-26T07:36:23.049Z,46.42
2018-09-26T07:38:52.275Z,46.12
2018-09-26T07:41:21.465Z,45.75
2018-09-26T07:43:50.645Z,45.85
2018-09-26T07:46:19.842Z,44.92
2018-09-26T07:48:49.170Z,45.11
2018-09-26T07:51:18.425Z,44.54
2018-09-26T07:53:47.574Z,43.77
2018-09-26T07:56:16.745Z,43.18
2018-09-26T07:58:45.937Z,41.83
2018-09-26T08:01:15.109Z,41.85
2018-09-26T08:03:44.279Z,40.98
2018-09-26T08:06:13.488Z,40.81
2018-09-26T08:08:42.722Z,40.00
2018-09-26T08:11:11.930Z,39.48
2018-09-26T08:13:41.109Z,39.13
2018-09-26T08:16:10.392Z,38.02
2018-09-26T08:18:39.636Z,37.01
2018-09-26T08:21:08.804Z,36.57
2018-09-26T08:23:38.031Z,36.27
2018-09-26T08:26:07.294Z,36.29
2018-09-26T08:28:36.498Z,36.93
2018-09-26T08:31:05.676Z,35.63
2018-09-26T08:33:34.842Z,35.87
2018-09-26T08:36:04.166Z,36.24
2018-09-26T08:38:33.324Z,36.24
2018-09-26T08:41:02.574Z,36.03
2018-09-26T08:43:31.719Z,35.85
2018-09-26T08:46:00.931Z,35.17
2018-09-26T08:48:30.109Z,34.91
2018-09-26T08:50:59.321Z,34.82
2018-09-26T08:53:28.557Z,34.82
2018-09-26T08:55:57.758Z,34.90
2018-09-26T08:58:26.974Z,34.92
2018-09-26T09:00:56.200Z,35.58
2018-09-26T09:03:25.369Z,34.93
2018-09-26T09:05:54.586Z,35.54
2018-09-26T09:08:23.924Z,35.68
2018-09-26T09:10:53.266Z,35.23
2018-09-26T09:13:22.473Z,34.75
2018-09-26T09:15:51.627Z,35.11
2018-09-26T09:18:20.884Z,34.63
2018-09-26T09:20:50.074Z,33.32
2018-09-26T09:23:19.295Z,31.14
2018-09-26T09:25:48.519Z,29.88
2018-09-26T09:28:17.753Z,30.54
2018-09-26T09:30:46.926Z,29.29
2018-09-26T09:33:16.109Z,29.77
2018-09-26T09:35:45.269Z,29.01
2018-09-26T09:38:14.429Z,27.58
2018-09-26T09:40:43.641Z,27.90
2018-09-26T09:43:12.779Z,28.09
2018-09-26T09:45:42.252Z,27.74
2018-09-26T09:48:11.414Z,28.36
2018-09-26T09:50:40.651Z,28.07
2018-09-26T09:53:09.943Z,28.96
2018-09-26T09:55:39.141Z,29.50
2018-09-26T09:58:08.287Z,28.78
2018-09-26T10:00:42.798Z,27.79
2018-09-26T10:03:12.041Z,28.12
2018-09-26T10:05:41.212Z,27.83
2018-09-26T10:08:10.437Z,26.61
2018-09-26T10:10:39.527Z,27.04
2018-09-26T10:13:08.659Z,26.69
2018-09-26T10:15:37.885Z,26.82
2018-09-26T10:18:07.070Z,26.13
2018-09-26T10:20:36.240Z,26.02
2018-09-26T10:23:05.412Z,25.54
2018-09-26T10:25:34.637Z,26.15
2018-09-26T10:28:03.768Z,27.30
2018-09-26T10:30:32.925Z,26.93
2018-09-26T10:33:02.109Z,26.68
2018-09-26T10:35:31.697Z,27.67
2018-09-26T10:38:00.888Z,28.25
2018-09-26T10:40:30.094Z,27.95
2018-09-26T10:42:59.338Z,28.69
2018-09-26T10:45:28.578Z,27.81
2018-09-26T10:47:57.820Z,28.05
2018-09-26T10:53:08.424Z,29.41
2018-09-26T10:55:37.680Z,28.47
2018-09-26T10:58:06.881Z,28.87
2018-09-26T11:00:36.238Z,28.89
2018-09-26T11:03:05.531Z,30.41
2018-09-26T11:05:34.875Z,30.02
2018-09-26T11:08:04.134Z,29.72
2018-09-26T11:10:33.365Z,29.70
2018-09-26T11:13:02.584Z,30.03
2018-09-26T11:15:31.761Z,29.90
2018-09-26T11:18:00.976Z,29.89
2018-09-26T11:20:30.254Z,30.91
2018-09-26T11:22:59.509Z,31.36
2018-09-26T11:25:28.685Z,31.13
2018-09-26T11:27:57.889Z,31.55
2018-09-26T11:30:27.140Z,30.90
2018-09-26T11:32:56.454Z,31.13
2018-09-26T11:35:25.571Z,31.36
2018-09-26T11:37:54.777Z,31.51
2018-09-26T11:40:23.938Z,30.91
2018-09-26T11:42:53.135Z,30.36
2018-09-26T11:45:22.308Z,30.61
2018-09-26T11:47:51.496Z,30.30
2018-09-26T11:50:20.724Z,30.89
2018-09-26T11:52:49.951Z,30.41
2018-09-26T11:55:19.197Z,30.52
2018-09-26T11:57:48.421Z,29.68
2018-09-26T12:00:17.659Z,30.22
2018-09-26T12:02:46.925Z,30.45
2018-09-26T12:05:16.056Z,30.17
2018-09-26T12:07:45.310Z,29.44
2018-09-26T12:10:14.559Z,29.53
2018-09-26T12:12:43.700Z,29.41
2018-09-26T12:15:12.918Z,29.53
2018-09-26T12:17:42.121Z,30.41
2018-09-26T12:20:11.320Z,30.18
2018-09-26T12:22:40.635Z,29.75
2018-09-26T12:25:09.900Z,29.90
2018-09-26T12:27:39.130Z,30.00
2018-09-26T12:30:09.902Z,29.50
2018-09-26T12:32:41.661Z,29.58
2018-09-26T12:35:10.829Z,28.97
2018-09-26T12:37:39.973Z,29.20
2018-09-26T12:40:09.903Z,29.44
2018-09-26T12:42:39.396Z,29.22
2018-09-26T12:45:08.597Z,28.93
2018-09-26T12:47:37.797Z,29.32
2018-09-26T12:50:07.297Z,28.98
2018-09-26T12:52:36.615Z,29.29
2018-09-26T12:55:05.846Z,29.57
2018-09-26T12:57:35.114Z,29.42
2018-09-26T13:00:04.424Z,29.42
2018-09-26T13:02:33.616Z,29.14
2018-09-26T13:05:02.822Z,28.78
2018-09-26T13:07:32.100Z,28.68
2018-09-26T13:10:01.282Z,28.11
2018-09-26T13:12:30.482Z,28.84
2018-09-26T13:14:59.689Z,28.77
2018-09-26T13:17:28.851Z,27.71
2018-09-26T13:19:58.021Z,27.76
2018-09-26T13:22:27.181Z,28.35
2018-09-26T13:24:56.376Z,28.26
2018-09-26T13:27:25.694Z,29.03
2018-09-26T13:29:54.881Z,28.94
2018-09-26T13:32:24.145Z,29.20
2018-09-26T13:34:53.374Z,29.64
2018-09-26T13:37:22.563Z,28.21
2018-09-26T13:39:51.741Z,28.57
2018-09-26T13:42:20.995Z,28.71
2018-09-26T13:44:50.119Z,27.61
2018-09-26T13:47:19.369Z,27.41
2018-09-26T13:49:48.537Z,27.67
2018-09-26T13:52:17.767Z,26.96
2018-09-26T13:54:46.883Z,26.90
2018-09-26T13:57:16.165Z,26.97
2018-09-26T13:59:45.389Z,26.72
2018-09-26T14:02:14.611Z,26.83
2018-09-26T14:04:43.806Z,27.07
2018-09-26T14:07:12.960Z,26.88
2018-09-26T14:09:42.093Z,26.42
2018-09-26T14:12:11.291Z,27.56
2018-09-26T14:14:40.407Z,26.44
2018-09-26T14:17:09.708Z,27.28
2018-09-26T14:19:38.889Z,26.59
2018-09-26T14:22:14.747Z,27.36
2018-09-26T14:24:43.921Z,27.35
2018-09-26T14:27:13.132Z,28.13
2018-09-26T14:29:42.286Z,28.25
2018-09-26T14:32:11.549Z,28.26
2018-09-26T14:34:40.678Z,28.54
2018-09-26T14:37:09.835Z,28.69
2018-09-26T14:39:39.070Z,28.58
2018-09-26T14:42:08.228Z,28.42
2018-09-26T14:44:37.429Z,28.62
2018-09-26T14:47:06.627Z,28.38
2018-09-26T14:49:35.876Z,28.54
2018-09-26T14:52:05.101Z,28.63
2018-09-26T14:54:34.299Z,29.24
2018-09-26T14:57:03.464Z,28.78
2018-09-26T14:59:32.619Z,28.72
2018-09-26T15:02:01.810Z,29.13
2018-09-26T15:04:31.064Z,29.34
2018-09-26T15:07:00.155Z,28.28
2018-09-26T15:09:29.323Z,29.14
2018-09-26T15:11:58.522Z,28.82
2018-09-26T15:14:27.669Z,28.79
2018-09-26T15:16:56.845Z,28.73
2018-09-26T15:19:26.102Z,28.34
2018-09-26T15:21:55.280Z,28.07
2018-09-26T15:24:24.456Z,28.54
2018-09-26T15:26:53.676Z,28.49
2018-09-26T15:29:22.841Z,28.22
2018-09-26T15:31:52.033Z,28.02
2018-09-26T15:34:21.233Z,28.13
2018-09-26T15:36:50.416Z,28.62
2018-09-26T15:39:19.585Z,28.68
2018-09-26T15:41:48.722Z,29.31
2018-09-26T15:44:18.010Z,29.77
2018-09-26T15:46:47.089Z,30.09
2018-09-26T15:49:16.286Z,30.07
2018-09-26T15:51:45.483Z,29.93
2018-09-26T15:54:14.692Z,30.02
2018-09-26T15:56:43.852Z,30.46
2018-09-26T15:59:13.048Z,30.71
2018-09-26T16:01:42.177Z,30.79
2018-09-26T16:04:11.340Z,31.13
2018-09-26T16:06:40.483Z,30.92
2018-09-26T16:09:09.667Z,30.87
2018-09-26T16:11:38.855Z,30.97
2018-09-26T16:14:08.084Z,30.94
2018-09-26T16:16:37.249Z,31.33
2018-09-26T16:19:06.444Z,31.13
2018-09-26T16:21:35.651Z,31.43
2018-09-26T16:24:04.837Z,31.81
2018-09-26T16:26:34.139Z,32.04
2018-09-26T16:29:03.368Z,32.47
2018-09-26T16:31:32.627Z,33.18
2018-09-26T16:34:02.303Z,33.24
2018-09-26T16:36:31.473Z,33.70
2018-09-26T16:39:01.512Z,33.63
2018-09-26T16:41:30.657Z,33.98
2018-09-26T16:44:00.124Z,33.95
2018-09-26T16:46:29.521Z,33.62
2018-09-26T16:48:58.788Z,33.75
2018-09-26T16:51:27.956Z,33.98
2018-09-26T16:53:57.150Z,34.33
2018-09-26T16:56:26.373Z,34.52
2018-09-26T16:58:55.519Z,34.58
2018-09-26T17:01:24.715Z,34.82
2018-09-26T17:03:53.920Z,34.99
2018-09-26T17:06:23.933Z,35.08
2018-09-26T17:08:53.014Z,35.12
2018-09-26T17:11:22.218Z,35.20
2018-09-26T17:13:51.383Z,35.33
2018-09-26T17:16:20.641Z,35.71
2018-09-26T17:18:49.985Z,35.36
2018-09-26T17:21:19.183Z,35.76
2018-09-26T17:23:48.507Z,35.80
2018-09-26T17:26:17.734Z,35.75
2018-09-26T17:28:46.954Z,35.85
2018-09-26T17:31:16.140Z,36.15
2018-09-26T17:33:45.419Z,36.22
2018-09-26T17:36:14.742Z,36.18
2018-09-26T17:38:44.333Z,36.18
2018-09-26T17:41:13.500Z,36.38
2018-09-26T17:43:42.735Z,36.07
2018-09-26T17:46:11.938Z,36.99
2018-09-26T17:48:41.132Z,37.27
2018-09-26T17:51:10.284Z,37.41
2018-09-26T17:53:39.404Z,38.10
2018-09-26T17:56:08.600Z,38.72
2018-09-26T17:58:37.759Z,38.27
2018-09-26T18:01:07.085Z,38.33
2018-09-26T18:03:36.268Z,37.98
2018-09-26T18:06:05.460Z,37.58
2018-09-26T18:08:34.756Z,37.33
2018-09-26T18:11:03.898Z,37.30
2018-09-26T18:13:33.235Z,37.50
2018-09-26T18:16:02.440Z,37.73
2018-09-26T18:18:31.666Z,38.14
2018-09-26T18:21:00.848Z,38.16
2018-09-26T18:23:30.039Z,38.29
2018-09-26T18:25:59.289Z,38.82
2018-09-26T18:28:28.461Z,39.13
2018-09-26T18:30:57.676Z,38.99
2018-09-26T18:33:27.063Z,39.38
2018-09-26T18:35:56.239Z,39.46
2018-09-26T18:38:25.443Z,39.48
2018-09-26T18:40:54.657Z,39.78
2018-09-26T18:43:23.831Z,39.69
2018-09-26T18:45:53.119Z,39.87
2018-09-26T18:48:22.265Z,39.98
2018-09-26T18:50:51.451Z,39.85
2018-09-26T18:53:20.748Z,39.37
2018-09-26T18:55:50.026Z,39.28
2018-09-26T18:58:19.210Z,38.76
2018-09-26T19:00:48.423Z,38.64
2018-09-26T19:03:17.602Z,38.45
2018-09-26T19:05:46.756Z,38.41
2018-09-26T19:08:16.006Z,39.09
2018-09-26T19:10:45.182Z,39.02
2018-09-26T19:13:14.409Z,39.04
2018-09-26T19:15:43.572Z,39.23
2018-09-26T19:18:12.748Z,39.33
2018-09-26T19:20:41.999Z,39.43
2018-09-26T19:23:11.232Z,39.55
2018-09-26T19:25:40.473Z,39.61
2018-09-26T19:28:09.757Z,39.82
2018-09-26T19:30:38.919Z,39.76
2018-09-26T19:33:08.177Z,39.95
2018-09-26T19:35:37.351Z,40.26
2018-09-26T19:38:06.700Z,40.14
2018-09-26T19:40:35.991Z,40.07
2018-09-26T19:43:05.192Z,39.72
2018-09-26T19:45:34.416Z,39.66
2018-09-26T19:48:03.586Z,39.95
2018-09-26T19:50:32.771Z,39.76
2018-09-26T19:53:01.985Z,39.70
2018-09-26T19:55:31.239Z,39.68
2018-09-26T19:58:00.485Z,39.70
2018-09-26T20:00:29.711Z,39.46
2018-09-26T20:02:58.966Z,39.39
2018-09-26T20:05:28.209Z,39.20
2018-09-26T20:07:57.419Z,39.50
2018-09-26T20:10:26.657Z,39.83
2018-09-26T20:12:55.875Z,39.89
2018-09-26T20:15:25.012Z,40.07
2018-09-26T20:17:54.274Z,39.87
2018-09-26T20:20:23.396Z,39.31
2018-09-26T20:22:52.670Z,39.48
2018-09-26T20:25:21.829Z,39.46
2018-09-26T20:27:51.000Z,39.48
2018-09-26T20:30:20.228Z,38.56
2018-09-26T20:32:49.564Z,38.72
2018-09-26T20:35:18.767Z,39.06
2018-09-26T20:37:47.960Z,38.71
2018-09-26T20:40:17.144Z,38.97
2018-09-26T20:42:46.336Z,38.92
2018-09-26T20:45:15.548Z,38.74
2018-09-26T20:47:44.751Z,38.76
2018-09-26T20:50:13.941Z,39.06
2018-09-26T20:52:43.225Z,39.07
2018-09-26T20:55:12.413Z,39.20
2018-09-26T20:57:42.183Z,39.29
2018-09-26T21:00:11.460Z,39.01
2018-09-26T21:02:40.616Z,39.05
2018-09-26T21:05:09.878Z,39.30
2018-09-26T21:07:39.086Z,39.25
2018-09-26T21:10:08.929Z,39.24
2018-09-26T21:12:38.733Z,39.40
2018-09-26T21:15:07.936Z,38.87
2018-09-26T21:17:37.220Z,39.06
2018-09-26T21:20:06.387Z,38.73
2018-09-26T21:22:35.545Z,38.99
2018-09-26T21:25:04.726Z,38.54
2018-09-26T21:27:38.453Z,38.57
2018-09-26T21:30:07.944Z,38.61
2018-09-26T21:32:37.150Z,38.19
2018-09-26T21:35:06.382Z,38.53
2018-09-26T21:37:35.559Z,38.41
2018-09-26T21:40:04.825Z,38.71
2018-09-26T21:42:34.061Z,38.25
2018-09-26T21:45:03.259Z,38.59
2018-09-26T21:47:32.548Z,37.91
2018-09-26T21:50:01.831Z,37.93
2018-09-26T21:52:31.018Z,37.85
2018-09-26T21:55:00.235Z,38.09
2018-09-26T21:57:29.676Z,37.91
2018-09-26T21:59:58.919Z,37.79
2018-09-26T22:02:28.151Z,38.22
2018-09-26T22:04:57.364Z,38.50
2018-09-26T22:07:26.572Z,38.19
2018-09-26T22:09:55.831Z,38.08
2018-09-26T22:12:25.076Z,38.29
2018-09-26T22:14:54.334Z,38.43
2018-09-26T22:17:23.536Z,38.21
2018-09-26T22:19:52.756Z,38.61
2018-09-26T22:22:21.967Z,38.36
2018-09-26T22:24:51.274Z,38.65
2018-09-26T22:27:20.883Z,38.21
2018-09-26T22:29:50.058Z,38.28
2018-09-26T22:32:19.326Z,37.93
2018-09-26T22:34:48.581Z,38.09
2018-09-26T22:37:17.771Z,38.22
2018-09-26T22:39:46.961Z,37.73
2018-09-26T22:42:16.204Z,37.93
2018-09-26T22:44:45.435Z,37.83
2018-09-26T22:47:14.695Z,38.30
2018-09-26T22:49:43.927Z,38.38
2018-09-26T22:52:13.194Z,38.55
2018-09-26T22:54:42.378Z,38.80
2018-09-26T22:57:11.602Z,39.03
2018-09-26T22:59:40.815Z,39.00
2018-09-26T23:02:10.026Z,39.06
2018-09-26T23:04:39.212Z,39.30
2018-09-26T23:07:08.445Z,39.24
2018-09-26T23:09:37.661Z,39.61
2018-09-26T23:12:07.256Z,39.61
2018-09-26T23:14:36.505Z,39.89
2018-09-26T23:17:05.703Z,39.86
2018-09-26T23:19:34.908Z,39.98
2018-09-26T23:22:04.154Z,39.91
2018-09-26T23:24:33.321Z,40.16
2018-09-26T23:27:02.593Z,40.14
2018-09-26T23:29:31.850Z,40.10
2018-09-26T23:32:01.081Z,39.72
2018-09-26T23:34:30.360Z,39.62
2018-09-26T23:36:59.582Z,39.72
2018-09-26T23:39:28.770Z,39.92
2018-09-26T23:41:57.982Z,39.63
2018-09-26T23:44:27.210Z,39.80
2018-09-26T23:46:56.483Z,39.76
2018-09-26T23:49:25.719Z,39.65
2018-09-26T23:51:54.961Z,39.57
2018-09-26T23:54:24.229Z,39.64
2018-09-26T23:56:53.490Z,40.04
2018-09-26T23:59:22.689Z,39.96
